LGX37B LIRA-LEMH
Flight info
| Callsign | LGX37B |
|---|---|
| Flight time | 1h 4m |
| Altitude | 37000 |
| Route | ESINO DCT PIDUL DCT ORVEX DCT SUPUX Z924 KUPIM DCT SUXER Z924 RIPAL M603 MORSS |
| Aircraft | B38M/M-SDE1FGHILORVWXY/HB1 |
Departure
| Time | 2026-04-23 14:04 |
|---|---|
| Airport | Ciampino–G. B. Pastine International Airport (LIRA) |
Arrival
| Time | 2026-04-23 15:09 |
|---|---|
| Airport | Menorca Airport (LEMH) |
| Time | Latitude | Longitude | Altitude | Speed | Heading |
|---|---|---|---|---|---|
| 2026-04-23 13:52 | 41.80069 | 12.59020 | 402 ft | 0 kts | 123° |
| 2026-04-23 13:57 | 41.80074 | 12.59010 | 405 ft | 4 kts | 127° |
| 2026-04-23 13:57 | 41.80092 | 12.58984 | 405 ft | 4 kts | 145° |
| 2026-04-23 13:57 | 41.80116 | 12.58967 | 403 ft | 4 kts | 158° |
| 2026-04-23 13:57 | 41.80131 | 12.58958 | 405 ft | 1 kts | 155° |
| 2026-04-23 13:58 | 41.80134 | 12.58957 | 405 ft | 0 kts | 155° |
| 2026-04-23 14:00 | 41.80130 | 12.58960 | 405 ft | 5 kts | 148° |
| 2026-04-23 14:00 | 41.80162 | 12.59049 | 405 ft | 19 kts | 50° |
| 2026-04-23 14:01 | 41.80100 | 12.59167 | 405 ft | 18 kts | 153° |
| 2026-04-23 14:01 | 41.79984 | 12.59246 | 402 ft | 19 kts | 153° |
| 2026-04-23 14:01 | 41.79867 | 12.59328 | 406 ft | 19 kts | 152° |
| 2026-04-23 14:01 | 41.79746 | 12.59411 | 406 ft | 20 kts | 153° |
| 2026-04-23 14:02 | 41.79622 | 12.59496 | 404 ft | 20 kts | 153° |
| 2026-04-23 14:02 | 41.79497 | 12.59582 | 406 ft | 20 kts | 153° |
| 2026-04-23 14:02 | 41.79370 | 12.59669 | 406 ft | 21 kts | 153° |
| 2026-04-23 14:02 | 41.79241 | 12.59757 | 406 ft | 21 kts | 153° |
| 2026-04-23 14:03 | 41.79112 | 12.59846 | 406 ft | 21 kts | 153° |
| 2026-04-23 14:03 | 41.79035 | 12.59977 | 405 ft | 19 kts | 69° |
| 2026-04-23 14:03 | 41.79107 | 12.60052 | 408 ft | 16 kts | 340° |
| 2026-04-23 14:03 | 41.79335 | 12.59898 | 413 ft | 70 kts | 333° |
| 2026-04-23 14:04 | 41.79977 | 12.59460 | 414 ft | 134 kts | 333° |
| 2026-04-23 14:04 | 41.80899 | 12.58813 | 811 ft | 158 kts | 332° |
| 2026-04-23 14:04 | 41.81746 | 12.57911 | 1711 ft | 156 kts | 311° |
| 2026-04-23 14:04 | 41.82217 | 12.56581 | 2495 ft | 167 kts | 281° |
| 2026-04-23 14:05 | 41.82091 | 12.54962 | 3105 ft | 186 kts | 250° |
| 2026-04-23 14:05 | 41.81299 | 12.53529 | 3778 ft | 198 kts | 231° |
| 2026-04-23 14:05 | 41.80651 | 12.51831 | 4404 ft | 212 kts | 249° |
| 2026-04-23 14:05 | 41.80044 | 12.49937 | 4996 ft | 228 kts | 246° |
| 2026-04-23 14:06 | 41.79347 | 12.47935 | 5641 ft | 246 kts | 245° |
| 2026-04-23 14:06 | 41.78598 | 12.45791 | 6410 ft | 263 kts | 245° |
| 2026-04-23 14:06 | 41.77809 | 12.43491 | 7197 ft | 278 kts | 246° |
| 2026-04-23 14:06 | 41.77003 | 12.41106 | 8193 ft | 284 kts | 246° |
| 2026-04-23 14:07 | 41.76186 | 12.38677 | 9206 ft | 288 kts | 246° |
| 2026-04-23 14:07 | 41.74488 | 12.33657 | 10809 ft | 310 kts | 246° |
| 2026-04-23 14:07 | 41.73573 | 12.30961 | 11368 ft | 327 kts | 247° |
| 2026-04-23 14:08 | 41.72606 | 12.28113 | 11883 ft | 345 kts | 247° |
| 2026-04-23 14:08 | 41.71601 | 12.25155 | 12343 ft | 362 kts | 247° |
| 2026-04-23 14:08 | 41.70532 | 12.22013 | 12780 ft | 380 kts | 247° |
| 2026-04-23 14:08 | 41.69420 | 12.18755 | 13493 ft | 387 kts | 247° |
| 2026-04-23 14:09 | 41.68288 | 12.15448 | 14261 ft | 393 kts | 247° |
| 2026-04-23 14:09 | 41.67142 | 12.12100 | 14974 ft | 399 kts | 247° |
| 2026-04-23 14:09 | 41.65978 | 12.08700 | 15678 ft | 404 kts | 247° |
| 2026-04-23 14:09 | 41.64802 | 12.05261 | 16368 ft | 409 kts | 247° |
| 2026-04-23 14:10 | 41.63610 | 12.01783 | 17023 ft | 414 kts | 247° |
| 2026-04-23 14:10 | 41.62402 | 11.98266 | 17657 ft | 419 kts | 247° |
| 2026-04-23 14:10 | 41.61178 | 11.94708 | 18272 ft | 423 kts | 247° |
| 2026-04-23 14:10 | 41.59942 | 11.91120 | 18874 ft | 427 kts | 247° |
| 2026-04-23 14:11 | 41.58706 | 11.87539 | 19440 ft | 432 kts | 247° |
| 2026-04-23 14:11 | 41.57443 | 11.83877 | 19992 ft | 436 kts | 247° |
| 2026-04-23 14:11 | 41.56166 | 11.80181 | 20529 ft | 441 kts | 246° |
| 2026-04-23 14:11 | 41.54858 | 11.76404 | 21067 ft | 444 kts | 247° |
| 2026-04-23 14:12 | 41.53571 | 11.72693 | 21592 ft | 448 kts | 247° |
| 2026-04-23 14:12 | 41.52258 | 11.68907 | 22097 ft | 451 kts | 247° |
| 2026-04-23 14:12 | 41.50930 | 11.65087 | 22602 ft | 455 kts | 247° |
| 2026-04-23 14:12 | 41.49595 | 11.61248 | 23101 ft | 458 kts | 247° |
| 2026-04-23 14:13 | 41.48246 | 11.57377 | 23582 ft | 461 kts | 247° |
| 2026-04-23 14:13 | 41.46889 | 11.53490 | 24061 ft | 464 kts | 247° |
| 2026-04-23 14:13 | 41.45520 | 11.49572 | 24538 ft | 467 kts | 247° |
| 2026-04-23 14:13 | 41.44147 | 11.45649 | 25002 ft | 469 kts | 247° |
| 2026-04-23 14:14 | 41.42807 | 11.41677 | 25466 ft | 469 kts | 252° |
| 2026-04-23 14:14 | 41.41752 | 11.37552 | 25932 ft | 470 kts | 254° |
| 2026-04-23 14:14 | 41.40709 | 11.33419 | 26375 ft | 471 kts | 254° |
| 2026-04-23 14:14 | 41.39688 | 11.29265 | 26807 ft | 473 kts | 255° |
| 2026-04-23 14:15 | 41.38683 | 11.25092 | 27236 ft | 474 kts | 255° |
| 2026-04-23 14:15 | 41.37673 | 11.20910 | 27637 ft | 475 kts | 255° |
| 2026-04-23 14:15 | 41.36645 | 11.16712 | 28032 ft | 477 kts | 255° |
| 2026-04-23 14:15 | 41.35605 | 11.12515 | 28413 ft | 478 kts | 255° |
| 2026-04-23 14:16 | 41.34559 | 11.08306 | 28775 ft | 480 kts | 255° |
| 2026-04-23 14:16 | 41.33513 | 11.04080 | 29139 ft | 481 kts | 255° |
| 2026-04-23 14:16 | 41.32469 | 10.99850 | 29459 ft | 482 kts | 255° |
| 2026-04-23 14:16 | 41.31421 | 10.95613 | 29764 ft | 483 kts | 255° |
| 2026-04-23 14:17 | 41.30381 | 10.91420 | 30020 ft | 483 kts | 255° |
| 2026-04-23 14:17 | 41.29323 | 10.87177 | 30407 ft | 481 kts | 255° |
| 2026-04-23 14:17 | 41.28272 | 10.82968 | 30783 ft | 479 kts | 255° |
| 2026-04-23 14:17 | 41.27224 | 10.78781 | 31158 ft | 476 kts | 255° |
| 2026-04-23 14:18 | 41.26183 | 10.74612 | 31527 ft | 474 kts | 256° |
| 2026-04-23 14:18 | 41.25142 | 10.70451 | 31891 ft | 473 kts | 256° |
| 2026-04-23 14:18 | 41.24103 | 10.66310 | 32247 ft | 471 kts | 256° |
| 2026-04-23 14:18 | 41.23066 | 10.62194 | 32596 ft | 469 kts | 256° |
| 2026-04-23 14:19 | 41.22030 | 10.58089 | 32944 ft | 467 kts | 256° |
| 2026-04-23 14:19 | 41.20998 | 10.54009 | 33285 ft | 465 kts | 256° |
| 2026-04-23 14:19 | 41.19970 | 10.49937 | 33625 ft | 463 kts | 256° |
| 2026-04-23 14:19 | 41.18946 | 10.45887 | 33950 ft | 462 kts | 256° |
| 2026-04-23 14:20 | 41.17923 | 10.41850 | 34272 ft | 461 kts | 256° |
| 2026-04-23 14:20 | 41.16900 | 10.37827 | 34596 ft | 459 kts | 256° |
| 2026-04-23 14:20 | 41.15877 | 10.33808 | 34888 ft | 459 kts | 256° |
| 2026-04-23 14:20 | 41.14853 | 10.29794 | 35174 ft | 459 kts | 256° |
| 2026-04-23 14:21 | 41.13831 | 10.25791 | 35467 ft | 458 kts | 256° |
| 2026-04-23 14:21 | 41.12822 | 10.21847 | 35751 ft | 457 kts | 256° |
| 2026-04-23 14:21 | 41.11800 | 10.17858 | 36032 ft | 457 kts | 256° |
| 2026-04-23 14:21 | 41.10777 | 10.13874 | 36314 ft | 457 kts | 256° |
| 2026-04-23 14:22 | 41.09754 | 10.09895 | 36580 ft | 456 kts | 256° |
| 2026-04-23 14:22 | 41.08729 | 10.05917 | 36837 ft | 456 kts | 256° |
| 2026-04-23 14:22 | 41.07703 | 10.01939 | 37130 ft | 454 kts | 256° |
| 2026-04-23 14:22 | 41.06682 | 9.97983 | 37201 ft | 455 kts | 256° |
| 2026-04-23 14:23 | 41.04660 | 9.90203 | 37209 ft | 435 kts | 256° |
| 2026-04-23 14:23 | 41.02696 | 9.82617 | 37214 ft | 437 kts | 256° |
| 2026-04-23 14:24 | 41.00710 | 9.74978 | 37221 ft | 438 kts | 256° |
| 2026-04-23 14:24 | 40.98728 | 9.67425 | 37225 ft | 435 kts | 256° |
| 2026-04-23 14:25 | 40.96748 | 9.59871 | 37222 ft | 434 kts | 256° |
| 2026-04-23 14:25 | 40.94769 | 9.52340 | 37222 ft | 433 kts | 256° |
| 2026-04-23 14:26 | 40.92783 | 9.44819 | 37223 ft | 432 kts | 256° |
| 2026-04-23 14:26 | 40.90795 | 9.37307 | 37226 ft | 432 kts | 257° |
| 2026-04-23 14:27 | 40.88809 | 9.29823 | 37225 ft | 431 kts | 256° |
| 2026-04-23 14:27 | 40.86819 | 9.22352 | 37230 ft | 431 kts | 257° |
| 2026-04-23 14:28 | 40.84834 | 9.14923 | 37237 ft | 431 kts | 257° |
| 2026-04-23 14:28 | 40.82837 | 9.07467 | 37224 ft | 430 kts | 257° |
| 2026-04-23 14:29 | 40.80837 | 9.00017 | 37219 ft | 431 kts | 257° |
| 2026-04-23 14:29 | 40.78827 | 8.92566 | 37200 ft | 430 kts | 257° |
| 2026-04-23 14:30 | 40.77161 | 8.86407 | 37188 ft | 428 kts | 257° |
| 2026-04-23 14:30 | 40.75161 | 8.79020 | 37180 ft | 428 kts | 257° |
| 2026-04-23 14:31 | 40.73151 | 8.71622 | 37164 ft | 428 kts | 257° |
| 2026-04-23 14:31 | 40.71143 | 8.64257 | 37156 ft | 427 kts | 257° |
| 2026-04-23 14:32 | 40.69132 | 8.56904 | 37156 ft | 426 kts | 257° |
| 2026-04-23 14:32 | 40.67118 | 8.49557 | 37154 ft | 424 kts | 257° |
| 2026-04-23 14:33 | 40.65109 | 8.42249 | 37150 ft | 424 kts | 257° |
| 2026-04-23 14:33 | 40.63108 | 8.34993 | 37151 ft | 424 kts | 257° |
| 2026-04-23 14:34 | 40.61092 | 8.27706 | 37144 ft | 422 kts | 257° |
| 2026-04-23 14:34 | 40.59082 | 8.20460 | 37148 ft | 421 kts | 257° |
| 2026-04-23 14:35 | 40.57069 | 8.13218 | 37142 ft | 421 kts | 257° |
| 2026-04-23 14:35 | 40.55052 | 8.05990 | 37142 ft | 421 kts | 257° |
| 2026-04-23 14:36 | 40.53032 | 7.98770 | 37142 ft | 420 kts | 257° |
| 2026-04-23 14:36 | 40.51030 | 7.91635 | 37143 ft | 418 kts | 257° |
| 2026-04-23 14:37 | 40.49011 | 7.84450 | 37142 ft | 419 kts | 257° |
| 2026-04-23 14:37 | 40.46986 | 7.77273 | 37142 ft | 419 kts | 257° |
| 2026-04-23 14:38 | 40.44956 | 7.70100 | 37143 ft | 419 kts | 257° |
| 2026-04-23 14:38 | 40.42922 | 7.62929 | 37142 ft | 418 kts | 257° |
| 2026-04-23 14:39 | 40.40884 | 7.55767 | 37142 ft | 419 kts | 257° |
| 2026-04-23 14:39 | 40.38842 | 7.48607 | 37141 ft | 419 kts | 257° |
| 2026-04-23 14:40 | 40.36806 | 7.41486 | 37141 ft | 421 kts | 257° |
| 2026-04-23 14:40 | 40.34740 | 7.34292 | 37143 ft | 421 kts | 257° |
| 2026-04-23 14:41 | 40.33087 | 7.27037 | 37148 ft | 410 kts | 266° |
| 2026-04-23 14:41 | 40.32103 | 7.19654 | 37143 ft | 411 kts | 267° |
| 2026-04-23 14:42 | 40.31132 | 7.12262 | 37143 ft | 412 kts | 266° |
| 2026-04-23 14:42 | 40.30141 | 7.04848 | 37142 ft | 413 kts | 266° |
| 2026-04-23 14:43 | 40.29145 | 6.97438 | 37142 ft | 413 kts | 266° |
| 2026-04-23 14:43 | 40.28147 | 6.90017 | 37140 ft | 414 kts | 266° |
| 2026-04-23 14:44 | 40.27140 | 6.82582 | 37139 ft | 415 kts | 266° |
| 2026-04-23 14:44 | 40.26134 | 6.75197 | 37146 ft | 414 kts | 266° |
| 2026-04-23 14:45 | 40.25116 | 6.67740 | 37150 ft | 415 kts | 266° |
| 2026-04-23 14:45 | 40.24091 | 6.60297 | 37150 ft | 415 kts | 266° |
| 2026-04-23 14:46 | 40.23064 | 6.52855 | 37149 ft | 415 kts | 266° |
| 2026-04-23 14:46 | 40.22033 | 6.45426 | 37151 ft | 415 kts | 266° |
| 2026-04-23 14:47 | 40.21001 | 6.38042 | 37151 ft | 416 kts | 266° |
| 2026-04-23 14:47 | 40.19959 | 6.30605 | 37151 ft | 415 kts | 265° |
| 2026-04-23 14:48 | 40.18910 | 6.23159 | 37151 ft | 416 kts | 265° |
| 2026-04-23 14:48 | 40.17858 | 6.15734 | 37154 ft | 414 kts | 265° |
| 2026-04-23 14:49 | 40.16807 | 6.08323 | 37154 ft | 415 kts | 265° |
| 2026-04-23 14:49 | 40.15744 | 6.00888 | 37152 ft | 416 kts | 265° |
| 2026-04-23 14:50 | 40.14675 | 5.93454 | 37153 ft | 416 kts | 265° |
| 2026-04-23 14:50 | 40.13602 | 5.86022 | 37156 ft | 416 kts | 265° |
| 2026-04-23 14:51 | 40.12553 | 5.78599 | 37155 ft | 415 kts | 265° |
| 2026-04-23 14:51 | 40.11516 | 5.71167 | 37156 ft | 416 kts | 265° |
| 2026-04-23 14:52 | 40.10460 | 5.63746 | 37160 ft | 416 kts | 265° |
| 2026-04-23 14:52 | 40.09406 | 5.56362 | 37162 ft | 416 kts | 265° |
| 2026-04-23 14:53 | 40.08345 | 5.48941 | 37161 ft | 416 kts | 265° |
| 2026-04-23 14:53 | 40.07275 | 5.41482 | 36591 ft | 419 kts | 265° |
| 2026-04-23 14:54 | 40.06736 | 5.37762 | 35993 ft | 416 kts | 265° |
| 2026-04-23 14:54 | 40.06197 | 5.34048 | 35224 ft | 417 kts | 265° |
| 2026-04-23 14:54 | 40.05656 | 5.30311 | 34355 ft | 421 kts | 265° |
| 2026-04-23 14:54 | 40.05110 | 5.26536 | 33428 ft | 425 kts | 265° |
| 2026-04-23 14:55 | 40.04558 | 5.22728 | 32453 ft | 429 kts | 265° |
| 2026-04-23 14:55 | 40.03998 | 5.18890 | 31479 ft | 432 kts | 264° |
| 2026-04-23 14:55 | 40.03430 | 5.15028 | 30465 ft | 435 kts | 264° |
| 2026-04-23 14:55 | 40.02857 | 5.11142 | 29383 ft | 438 kts | 264° |
| 2026-04-23 14:56 | 40.02281 | 5.07229 | 28242 ft | 441 kts | 264° |
| 2026-04-23 14:56 | 40.01700 | 5.03288 | 27028 ft | 443 kts | 264° |
| 2026-04-23 14:56 | 40.01114 | 4.99321 | 25727 ft | 448 kts | 264° |
| 2026-04-23 14:56 | 40.00526 | 4.95363 | 24827 ft | 441 kts | 264° |
| 2026-04-23 14:57 | 39.99942 | 4.91454 | 23843 ft | 436 kts | 264° |
| 2026-04-23 14:57 | 39.99373 | 4.87647 | 22862 ft | 430 kts | 263° |
| 2026-04-23 14:57 | 39.98805 | 4.83848 | 21906 ft | 424 kts | 263° |
| 2026-04-23 14:57 | 39.98244 | 4.80096 | 20947 ft | 418 kts | 263° |
| 2026-04-23 14:58 | 39.97685 | 4.76400 | 19984 ft | 412 kts | 262° |
| 2026-04-23 14:58 | 39.97030 | 4.72776 | 19039 ft | 408 kts | 259° |
| 2026-04-23 14:58 | 39.96264 | 4.69232 | 18074 ft | 404 kts | 257° |
| 2026-04-23 14:58 | 39.95477 | 4.65752 | 17144 ft | 398 kts | 257° |
| 2026-04-23 14:59 | 39.94731 | 4.62300 | 16214 ft | 392 kts | 258° |
| 2026-04-23 14:59 | 39.94040 | 4.58889 | 15491 ft | 383 kts | 259° |
| 2026-04-23 14:59 | 39.93362 | 4.55619 | 15105 ft | 367 kts | 254° |
| 2026-04-23 14:59 | 39.92130 | 4.52764 | 14808 ft | 359 kts | 234° |
| 2026-04-23 15:00 | 39.90229 | 4.50708 | 14566 ft | 354 kts | 213° |
| 2026-04-23 15:00 | 39.87910 | 4.49769 | 14386 ft | 348 kts | 189° |
| 2026-04-23 15:00 | 39.85535 | 4.49603 | 14262 ft | 333 kts | 188° |
| 2026-04-23 15:00 | 39.83279 | 4.49356 | 14121 ft | 316 kts | 191° |
| 2026-04-23 15:01 | 39.81142 | 4.48922 | 13650 ft | 307 kts | 197° |
| 2026-04-23 15:01 | 39.79107 | 4.48230 | 13119 ft | 300 kts | 204° |
| 2026-04-23 15:01 | 39.77187 | 4.47241 | 12579 ft | 293 kts | 211° |
| 2026-04-23 15:01 | 39.75401 | 4.46010 | 12025 ft | 288 kts | 217° |
| 2026-04-23 15:02 | 39.74287 | 4.45086 | 11665 ft | 285 kts | 220° |
| 2026-04-23 15:02 | 39.72203 | 4.43002 | 10968 ft | 280 kts | 225° |
| 2026-04-23 15:02 | 39.70812 | 4.41295 | 10441 ft | 277 kts | 230° |
| 2026-04-23 15:02 | 39.69536 | 4.39429 | 9900 ft | 276 kts | 234° |
| 2026-04-23 15:03 | 39.68397 | 4.37436 | 9366 ft | 274 kts | 238° |
| 2026-04-23 15:03 | 39.67399 | 4.35326 | 8753 ft | 274 kts | 242° |
| 2026-04-23 15:03 | 39.66524 | 4.33049 | 7736 ft | 287 kts | 248° |
| 2026-04-23 15:03 | 39.65796 | 4.30596 | 6736 ft | 294 kts | 252° |
| 2026-04-23 15:04 | 39.65235 | 4.28014 | 5750 ft | 300 kts | 258° |
| 2026-04-23 15:04 | 39.65143 | 4.25345 | 4995 ft | 295 kts | 278° |
| 2026-04-23 15:04 | 39.65745 | 4.22841 | 4271 ft | 290 kts | 298° |
| 2026-04-23 15:04 | 39.66947 | 4.20792 | 3716 ft | 279 kts | 320° |
| 2026-04-23 15:05 | 39.68507 | 4.19468 | 3475 ft | 262 kts | 338° |
| 2026-04-23 15:05 | 39.70201 | 4.18844 | 3200 ft | 245 kts | 356° |
| 2026-04-23 15:05 | 39.71780 | 4.18884 | 2924 ft | 210 kts | 12° |
| 2026-04-23 15:05 | 39.73146 | 4.19164 | 2634 ft | 186 kts | 13° |
| 2026-04-23 15:06 | 39.74392 | 4.19419 | 2401 ft | 174 kts | 13° |
| 2026-04-23 15:06 | 39.75544 | 4.19656 | 2167 ft | 166 kts | 13° |
| 2026-04-23 15:06 | 39.76646 | 4.19879 | 1924 ft | 157 kts | 13° |
| 2026-04-23 15:06 | 39.77709 | 4.20101 | 1728 ft | 154 kts | 14° |
| 2026-04-23 15:07 | 39.78744 | 4.20320 | 1555 ft | 149 kts | 14° |
| 2026-04-23 15:07 | 39.79777 | 4.20543 | 1423 ft | 150 kts | 14° |
| 2026-04-23 15:07 | 39.80798 | 4.20751 | 1200 ft | 149 kts | 13° |
| 2026-04-23 15:07 | 39.81828 | 4.20924 | 998 ft | 149 kts | 12° |
| 2026-04-23 15:08 | 39.82841 | 4.21120 | 788 ft | 147 kts | 14° |
| 2026-04-23 15:08 | 39.83840 | 4.21352 | 567 ft | 146 kts | 13° |
| 2026-04-23 15:08 | 39.84835 | 4.21571 | 384 ft | 147 kts | 12° |
| 2026-04-23 15:09 | 39.86566 | 4.21924 | 305 ft | 76 kts | 9° |
| 2026-04-23 15:09 | 39.86843 | 4.22064 | 302 ft | 29 kts | 36° |
| 2026-04-23 15:09 | 39.86895 | 4.22231 | 302 ft | 19 kts | 180° |
| 2026-04-23 15:09 | 39.86758 | 4.22208 | 299 ft | 21 kts | 187° |
| 2026-04-23 15:10 | 39.86660 | 4.22191 | 295 ft | 21 kts | 189° |
| 2026-04-23 15:10 | 39.86458 | 4.22147 | 293 ft | 22 kts | 189° |
| 2026-04-23 15:10 | 39.86305 | 4.22113 | 297 ft | 22 kts | 189° |
| 2026-04-23 15:10 | 39.86190 | 4.22178 | 290 ft | 22 kts | 100° |
| 2026-04-23 15:11 | 39.86296 | 4.22279 | 293 ft | 22 kts | 8° |
| 2026-04-23 15:11 | 39.86379 | 4.22329 | 287 ft | 9 kts | 84° |
| 2026-04-23 15:11 | 39.86373 | 4.22383 | 286 ft | 0 kts | 100° |